Time;durP1;ratioP1;P1;durP2;ratioP2;P2;SDS_P1;SDS_P2;PMS_P1;PMS_P2;Temp;Humidity;BMP_temperature;BMP_pressure;BME280_temperature;BME280_humidity;BME280_pressure;Samples;Min_cycle;Max_cycle;Signal;HPM_P1;HPM_P2
2022/05/27 00:00:38;;;;;;;0.00;0.00;;;;;;;;;;4179117;28;20400;-40
2022/05/27 00:02:39;;;;;;;0.10;0.10;;;;;;;;;;4179316;28;20450;-39
2022/05/27 00:04:40;;;;;;;0.22;0.10;;;;;;;;;;4179530;28;20099;-39
2022/05/27 00:06:41;;;;;;;0.00;0.00;;;;;;;;;;4179757;28;20048;-40
2022/05/27 00:08:42;;;;;;;0.10;0.10;;;;;;;;;;4179524;28;20372;-39
2022/05/27 00:10:43;;;;;;;0.00;0.00;;;;;;;;;;4179779;28;20541;-40
2022/05/27 00:12:44;;;;;;;0.10;0.10;;;;;;;;;;4179325;28;20045;-39
2022/05/27 00:14:45;;;;;;;0.10;0.10;;;;;;;;;;4179015;28;20049;-39
2022/05/27 00:16:46;;;;;;;0.08;0.08;;;;;;;;;;4179490;28;20045;-37
2022/05/27 00:18:47;;;;;;;0.10;0.10;;;;;;;;;;4179513;28;20492;-39
2022/05/27 00:20:49;;;;;;;0.10;0.05;;;;;;;;;;4178197;28;20060;-39
2022/05/27 00:22:50;;;;;;;0.00;0.00;;;;;;;;;;4179429;28;20436;-38
2022/05/27 00:24:50;;;;;;;0.05;0.05;;;;;;;;;;4179527;28;20405;-40
2022/05/27 00:26:52;;;;;;;0.00;0.00;;;;;;;;;;4179314;28;20546;-41
2022/05/27 00:28:53;;;;;;;0.10;0.10;;;;;;;;;;4177577;28;20095;-40
2022/05/27 00:30:53;;;;;;;0.00;0.00;;;;;;;;;;4179211;28;20372;-40
2022/05/27 00:32:55;;;;;;;0.20;0.10;;;;;;;;;;4179378;28;20049;-38
2022/05/27 00:34:56;;;;;;;0.10;0.10;;;;;;;;;;4179215;28;20485;-41
2022/05/27 00:36:56;;;;;;;0.10;0.10;;;;;;;;;;4179537;28;20095;-37
2022/05/27 00:39:00;;;;;;;0.10;0.10;;;;;;;;;;4179109;28;20094;-41
2022/05/27 00:41:01;;;;;;;0.00;0.00;;;;;;;;;;4179151;28;20052;-39
2022/05/27 00:43:02;;;;;;;0.10;0.10;;;;;;;;;;4179206;28;20488;-40
2022/05/27 00:45:04;;;;;;;0.20;0.10;;;;;;;;;;4178628;28;20048;-39
2022/05/27 00:47:08;;;;;;;0.30;0.20;;;;;;;;;;4179251;28;20052;-41
2022/05/27 00:49:11;;;;;;;0.10;0.10;;;;;;;;;;4179028;28;20049;-39
2022/05/27 00:51:17;;;;;;;0.05;0.05;;;;;;;;;;4179126;28;20053;-39
2022/05/27 00:53:51;;;;;;;0.10;0.10;;;;;;;;;;4179077;28;20052;-38
2022/05/27 00:55:55;;;;;;;0.30;0.25;;;;;;;;;;4166951;28;20064;-39
2022/05/27 00:57:58;;;;;;;0.00;0.00;;;;;;;;;;4179286;28;20049;-40
2022/05/27 01:00:01;;;;;;;0.20;0.10;;;;;;;;;;4177433;28;20108;-39
2022/05/27 01:02:02;;;;;;;0.10;0.10;;;;;;;;;;4179080;28;20053;-39
2022/05/27 01:04:04;;;;;;;0.10;0.10;;;;;;;;;;4194017;28;20438;-39
2022/05/27 01:06:05;;;;;;;0.20;0.10;;;;;;;;;;4178985;28;20098;-41
2022/05/27 01:08:08;;;;;;;0.08;0.00;;;;;;;;;;4179134;28;20053;-39
2022/05/27 01:10:11;;;;;;;0.00;0.00;;;;;;;;;;4178782;28;20049;-39
2022/05/27 01:12:16;;;;;;;0.00;0.00;;;;;;;;;;4179100;28;20500;-41
2022/05/27 01:14:27;;;;;;;0.20;0.10;;;;;;;;;;4178965;28;20056;-39
2022/05/27 01:16:37;;;;;;;0.00;0.00;;;;;;;;;;4182154;28;20045;-40
2022/05/27 01:21:06;;;;;;;0.10;0.10;;;;;;;;;;4182360;28;20124;-37
2022/05/27 01:23:19;;;;;;;0.40;0.10;;;;;;;;;;4182089;28;20049;-41
2022/05/27 01:25:29;;;;;;;0.10;0.10;;;;;;;;;;4181631;28;20605;-38
2022/05/27 01:27:36;;;;;;;0.10;0.05;;;;;;;;;;4182212;28;20048;-38
2022/05/27 01:29:53;;;;;;;0.08;0.08;;;;;;;;;;4180157;28;20071;-40
2022/05/27 01:31:59;;;;;;;0.00;0.00;;;;;;;;;;4181930;28;20382;-38
2022/05/27 01:34:18;;;;;;;0.00;0.00;;;;;;;;;;4181663;28;20053;-38
2022/05/27 01:36:19;;;;;;;0.00;0.00;;;;;;;;;;4181653;28;20049;-39
2022/05/27 01:38:32;;;;;;;0.10;0.10;;;;;;;;;;4181646;28;20078;-37
2022/05/27 01:40:38;;;;;;;0.17;0.10;;;;;;;;;;4181445;28;20079;-41
2022/05/27 01:42:57;;;;;;;0.10;0.10;;;;;;;;;;4181845;28;20091;-40
2022/05/27 01:45:00;;;;;;;0.10;0.10;;;;;;;;;;4179980;28;20098;-41
2022/05/27 01:47:04;;;;;;;0.00;0.00;;;;;;;;;;4181526;28;20053;-41
2022/05/27 01:49:11;;;;;;;0.00;0.00;;;;;;;;;;4181450;28;20048;-40
2022/05/27 01:51:25;;;;;;;0.00;0.00;;;;;;;;;;4181768;28;20049;-41
2022/05/27 01:53:45;;;;;;;0.00;0.00;;;;;;;;;;4181450;28;20052;-41
2022/05/27 01:55:53;;;;;;;0.00;0.00;;;;;;;;;;4181251;28;20436;-38
2022/05/27 01:58:00;;;;;;;0.80;0.10;;;;;;;;;;4181230;28;20456;-40
2022/05/27 02:00:00;;;;;;;0.10;0.10;;;;;;;;;;4180996;28;20036;-38
2022/05/27 02:02:07;;;;;;;0.00;0.00;;;;;;;;;;4196496;28;20145;-40
2022/05/27 02:04:20;;;;;;;0.08;0.08;;;;;;;;;;4181385;28;20053;-40
2022/05/27 02:06:27;;;;;;;0.13;0.00;;;;;;;;;;4181242;28;20045;-41
2022/05/27 02:08:32;;;;;;;0.40;0.10;;;;;;;;;;4180992;28;20374;-39
2022/05/27 02:10:48;;;;;;;0.10;0.00;;;;;;;;;;4181081;28;20048;-39
2022/05/27 02:12:52;;;;;;;0.00;0.00;;;;;;;;;;4181092;28;20049;-37
2022/05/27 02:14:55;;;;;;;0.30;0.10;;;;;;;;;;4180500;28;20743;-39
2022/05/27 02:17:06;;;;;;;0.10;0.05;;;;;;;;;;4196317;28;20122;-38
2022/05/27 02:19:09;;;;;;;0.00;0.00;;;;;;;;;;4181100;28;20048;-37
2022/05/27 02:21:22;;;;;;;0.05;0.00;;;;;;;;;;4180887;28;20049;-40
2022/05/27 02:23:26;;;;;;;0.20;0.15;;;;;;;;;;4180841;28;20485;-39
2022/05/27 02:25:30;;;;;;;0.13;0.10;;;;;;;;;;4180510;28;20126;-37
2022/05/27 02:27:40;;;;;;;0.00;0.00;;;;;;;;;;4179581;28;20504;-40
2022/05/27 02:29:42;;;;;;;0.20;0.10;;;;;;;;;;4180525;28;20037;-39
2022/05/27 02:31:47;;;;;;;0.00;0.00;;;;;;;;;;4180579;28;20044;-40
2022/05/27 02:36:15;;;;;;;0.20;0.10;;;;;;;;;;4180737;28;20045;-39
2022/05/27 02:38:16;;;;;;;0.10;0.10;;;;;;;;;;4179413;28;20092;-38
2022/05/27 02:40:37;;;;;;;0.08;0.08;;;;;;;;;;4180947;28;20068;-40
2022/05/27 02:42:58;;;;;;;0.00;0.00;;;;;;;;;;4180476;28;20041;-39
2022/05/27 02:45:09;;;;;;;0.10;0.10;;;;;;;;;;4179821;28;20056;-39
2022/05/27 02:47:19;;;;;;;0.20;0.10;;;;;;;;;;4180688;28;20381;-40
2022/05/27 02:49:27;;;;;;;0.10;0.10;;;;;;;;;;4180643;28;20045;-40
2022/05/27 02:51:28;;;;;;;0.10;0.10;;;;;;;;;;4180698;28;20092;-40
2022/05/27 02:53:36;;;;;;;0.10;0.05;;;;;;;;;;4180562;28;20505;-39
2022/05/27 02:55:43;;;;;;;0.00;0.00;;;;;;;;;;4180245;28;20057;-39
2022/05/27 02:57:52;;;;;;;0.10;0.10;;;;;;;;;;4180357;28;20045;-40
2022/05/27 02:59:54;;;;;;;0.00;0.00;;;;;;;;;;4180098;28;20056;-38
2022/05/27 03:02:02;;;;;;;0.13;0.03;;;;;;;;;;4180161;28;20049;-36
2022/05/27 03:04:06;;;;;;;0.22;0.20;;;;;;;;;;4179261;28;20053;-39
2022/05/27 03:06:18;;;;;;;0.70;0.10;;;;;;;;;;4179407;28;20408;-40
2022/05/27 03:08:29;;;;;;;0.10;0.10;;;;;;;;;;4179068;28;20438;-39
2022/05/27 03:10:39;;;;;;;0.00;0.00;;;;;;;;;;4180469;28;20474;-37
2022/05/27 03:12:40;;;;;;;;;;;;;;;;;;4180720;28;20048;-40
2022/05/27 03:14:50;;;;;;;0.10;0.10;;;;;;;;;;4179743;28;19997;-36
2022/05/27 03:16:58;;;;;;;0.17;0.10;;;;;;;;;;4173459;28;20075;-41
2022/05/27 03:19:16;;;;;;;0.10;0.10;;;;;;;;;;4161657;28;20057;-38
2022/05/27 03:21:21;;;;;;;0.20;0.00;;;;;;;;;;4161498;28;20479;-40
2022/05/27 03:23:41;;;;;;;0.10;0.10;;;;;;;;;;4161543;28;20071;-41
2022/05/27 03:25:49;;;;;;;0.00;0.00;;;;;;;;;;4161524;28;20068;-39
2022/05/27 03:28:09;;;;;;;0.22;0.10;;;;;;;;;;4161301;28;20130;-41
2022/05/27 03:30:19;;;;;;;0.10;0.10;;;;;;;;;;4160938;28;20065;-36
2022/05/27 03:32:29;;;;;;;0.00;0.00;;;;;;;;;;4161386;28;20049;-39
2022/05/27 03:34:29;;;;;;;0.10;0.00;;;;;;;;;;4161246;28;20049;-35
2022/05/27 03:36:35;;;;;;;0.10;0.08;;;;;;;;;;4161217;28;20194;-38
2022/05/27 03:38:42;;;;;;;0.13;0.10;;;;;;;;;;4164777;28;20049;-41
2022/05/27 03:40:46;;;;;;;0.00;0.00;;;;;;;;;;4177326;28;20048;-39
2022/05/27 03:42:48;;;;;;;0.10;0.10;;;;;;;;;;4177590;28;20124;-39
2022/05/27 03:44:50;;;;;;;0.00;0.00;;;;;;;;;;4177021;28;20048;-41
2022/05/27 03:46:52;;;;;;;0.20;0.10;;;;;;;;;;4177787;28;20091;-41
2022/05/27 03:48:52;;;;;;;0.03;0.00;;;;;;;;;;4177867;28;20072;-39
2022/05/27 03:50:57;;;;;;;0.03;0.00;;;;;;;;;;4177576;28;20107;-39
2022/05/27 03:52:57;;;;;;;0.08;0.08;;;;;;;;;;4177417;28;20489;-40
2022/05/27 03:54:59;;;;;;;0.10;0.10;;;;;;;;;;4176131;28;20056;-38
2022/05/27 03:57:00;;;;;;;0.00;0.00;;;;;;;;;;4177769;28;20516;-39
2022/05/27 03:59:02;;;;;;;0.10;0.10;;;;;;;;;;4177136;28;20052;-39
2022/05/27 04:01:03;;;;;;;0.10;0.10;;;;;;;;;;4176174;28;20048;-38
2022/05/27 04:03:04;;;;;;;0.10;0.10;;;;;;;;;;4177577;28;20241;-39
2022/05/27 04:05:06;;;;;;;0.20;0.10;;;;;;;;;;4181705;28;20045;-39
2022/05/27 04:07:07;;;;;;;0.00;0.00;;;;;;;;;;4196375;28;20049;-39
2022/05/27 04:09:08;;;;;;;0.10;0.08;;;;;;;;;;4195825;28;20475;-41
2022/05/27 04:11:09;;;;;;;0.00;0.00;;;;;;;;;;4196013;28;20433;-37
2022/05/27 04:13:10;;;;;;;0.10;0.00;;;;;;;;;;4196278;28;20049;-39
2022/05/27 04:15:11;;;;;;;0.00;0.00;;;;;;;;;;4195761;28;20207;-37
2022/05/27 04:17:27;;;;;;;0.43;0.13;;;;;;;;;;4196011;28;20455;-41
2022/05/27 04:19:28;;;;;;;0.03;0.00;;;;;;;;;;4196006;28;20049;-38
2022/05/27 04:21:30;;;;;;;0.10;0.10;;;;;;;;;;4196038;28;20117;-40
2022/05/27 04:23:30;;;;;;;0.10;0.00;;;;;;;;;;4195844;28;20114;-41
2022/05/27 04:25:31;;;;;;;0.22;0.10;;;;;;;;;;4183011;28;20048;-37
2022/05/27 04:27:32;;;;;;;0.05;0.05;;;;;;;;;;4179398;28;20098;-40
2022/05/27 04:29:36;;;;;;;0.00;0.00;;;;;;;;;;4178798;28;20477;-38
2022/05/27 04:31:37;;;;;;;0.40;0.10;;;;;;;;;;4179300;28;20057;-39
2022/05/27 04:33:39;;;;;;;0.00;0.00;;;;;;;;;;4179148;28;20550;-41
2022/05/27 04:35:40;;;;;;;0.00;0.00;;;;;;;;;;4179168;28;20055;-40
2022/05/27 04:37:41;;;;;;;0.00;0.00;;;;;;;;;;4179220;28;20099;-40
2022/05/27 04:39:42;;;;;;;0.00;0.00;;;;;;;;;;4179238;28;20056;-41
2022/05/27 04:41:43;;;;;;;0.05;0.03;;;;;;;;;;4180493;28;20485;-41
2022/05/27 04:43:44;;;;;;;0.20;0.10;;;;;;;;;;4178833;28;20546;-41
2022/05/27 04:45:45;;;;;;;0.05;0.05;;;;;;;;;;4179108;28;20131;-37
2022/05/27 04:47:46;;;;;;;0.10;0.10;;;;;;;;;;4178684;28;20441;-39
2022/05/27 04:49:58;;;;;;;0.00;0.00;;;;;;;;;;4195651;28;20078;-37
2022/05/27 04:51:59;;;;;;;0.08;0.00;;;;;;;;;;4182340;28;20045;-41
2022/05/27 04:53:59;;;;;;;0.03;0.00;;;;;;;;;;4182060;28;20468;-41
2022/05/27 04:56:01;;;;;;;0.20;0.10;;;;;;;;;;4182233;28;20447;-36
2022/05/27 04:58:02;;;;;;;0.10;0.10;;;;;;;;;;4182216;28;20052;-38
2022/05/27 05:00:08;;;;;;;0.10;0.10;;;;;;;;;;4181732;28;20079;-40
2022/05/27 05:02:09;;;;;;;0.00;0.00;;;;;;;;;;4164040;28;20107;-41
2022/05/27 05:04:10;;;;;;;0.10;0.10;;;;;;;;;;4163403;28;20106;-39
2022/05/27 05:06:11;;;;;;;0.20;0.20;;;;;;;;;;4163664;28;20540;-39
2022/05/27 05:08:17;;;;;;;0.13;0.03;;;;;;;;;;4163462;28;20057;-41
2022/05/27 05:10:20;;;;;;;0.08;0.00;;;;;;;;;;4178711;28;20087;-40
2022/05/27 05:12:22;;;;;;;0.52;0.20;;;;;;;;;;4163192;28;20088;-40
2022/05/27 05:14:23;;;;;;;0.10;0.10;;;;;;;;;;4162983;28;20095;-39
2022/05/27 05:16:25;;;;;;;0.10;0.10;;;;;;;;;;4163213;28;20045;-40
2022/05/27 05:18:26;;;;;;;0.15;0.10;;;;;;;;;;4163285;28;20054;-39
2022/05/27 05:20:30;;;;;;;0.30;0.20;;;;;;;;;;4194673;28;20045;-38
2022/05/27 05:22:31;;;;;;;0.10;0.10;;;;;;;;;;4163453;28;20100;-41
2022/05/27 05:24:32;;;;;;;0.15;0.10;;;;;;;;;;4162637;28;20736;-41
2022/05/27 05:26:33;;;;;;;0.10;0.10;;;;;;;;;;4163291;28;20100;-38
2022/05/27 05:28:34;;;;;;;0.43;0.00;;;;;;;;;;4162980;28;20041;-39
2022/05/27 05:30:35;;;;;;;0.52;0.10;;;;;;;;;;4162566;28;20123;-38
2022/05/27 05:32:36;;;;;;;0.40;0.10;;;;;;;;;;4163437;28;20088;-38
2022/05/27 05:34:37;;;;;;;0.15;0.10;;;;;;;;;;4179550;28;20106;-37
2022/05/27 05:36:38;;;;;;;0.30;0.10;;;;;;;;;;4179180;28;20110;-38
2022/05/27 05:38:38;;;;;;;0.10;0.10;;;;;;;;;;4179491;28;20083;-38
2022/05/27 05:40:39;;;;;;;0.13;0.10;;;;;;;;;;4179201;28;20156;-40
2022/05/27 05:42:41;;;;;;;0.52;0.10;;;;;;;;;;4179298;28;20099;-39
2022/05/27 05:44:42;;;;;;;0.40;0.10;;;;;;;;;;4178665;28;20094;-39
2022/05/27 05:46:43;;;;;;;0.25;0.13;;;;;;;;;;4179605;28;20095;-40
2022/05/27 05:48:44;;;;;;;0.40;0.20;;;;;;;;;;4178915;28;20045;-37
2022/05/27 05:50:45;;;;;;;0.10;0.10;;;;;;;;;;4179161;28;20056;-39
2022/05/27 05:52:46;;;;;;;0.30;0.10;;;;;;;;;;4179355;28;20053;-39
2022/05/27 05:54:47;;;;;;;0.63;0.25;;;;;;;;;;4178914;28;20052;-41
2022/05/27 05:56:48;;;;;;;0.15;0.10;;;;;;;;;;4179031;28;20103;-40
2022/05/27 05:58:50;;;;;;;0.00;0.00;;;;;;;;;;4178732;28;20083;-40
2022/05/27 06:00:51;;;;;;;0.40;0.10;;;;;;;;;;4178211;28;20060;-41
2022/05/27 06:02:52;;;;;;;0.28;0.20;;;;;;;;;;4178879;28;20057;-38
2022/05/27 06:04:53;;;;;;;0.65;0.20;;;;;;;;;;4178844;28;20112;-41
2022/05/27 06:06:54;;;;;;;0.20;0.20;;;;;;;;;;4178805;28;20091;-40
2022/05/27 06:08:55;;;;;;;0.43;0.22;;;;;;;;;;4178822;28;20057;-39
2022/05/27 06:10:56;;;;;;;0.20;0.15;;;;;;;;;;4178958;28;20052;-38
2022/05/27 06:12:58;;;;;;;0.77;0.20;;;;;;;;;;4178547;28;20052;-41
2022/05/27 06:14:59;;;;;;;0.88;0.10;;;;;;;;;;4178344;28;20054;-40
2022/05/27 06:17:00;;;;;;;0.20;0.13;;;;;;;;;;4178625;28;20049;-39
2022/05/27 06:19:01;;;;;;;0.10;0.10;;;;;;;;;;4177288;28;20099;-41
2022/05/27 06:21:02;;;;;;;0.17;0.10;;;;;;;;;;4178777;28;20118;-38
2022/05/27 06:23:04;;;;;;;0.13;0.10;;;;;;;;;;4178625;28;20048;-37
2022/05/27 06:25:05;;;;;;;0.10;0.10;;;;;;;;;;4176710;28;20090;-39
2022/05/27 06:27:07;;;;;;;1.40;0.40;;;;;;;;;;4178764;28;20138;-38
2022/05/27 06:36:06;;;;;;;0.13;0.13;;;;;;;;;;4178692;28;20451;-39
2022/05/27 06:38:08;;;;;;;0.40;0.10;;;;;;;;;;4176912;28;20053;-36
2022/05/27 06:40:10;;;;;;;0.10;0.10;;;;;;;;;;4178181;28;20057;-38
2022/05/27 06:42:12;;;;;;;0.50;0.20;;;;;;;;;;4177151;28;20056;-39
2022/05/27 06:44:13;;;;;;;0.47;0.20;;;;;;;;;;4177696;28;20049;-38
2022/05/27 06:46:15;;;;;;;0.30;0.20;;;;;;;;;;4178309;28;20053;-41
2022/05/27 06:48:15;;;;;;;0.20;0.20;;;;;;;;;;4177881;28;20056;-38
2022/05/27 06:50:16;;;;;;;0.20;0.10;;;;;;;;;;4178253;28;20081;-40
2022/05/27 06:52:19;;;;;;;0.40;0.20;;;;;;;;;;4178283;28;20056;-38
2022/05/27 06:54:20;;;;;;;0.40;0.30;;;;;;;;;;4177873;28;20108;-39
2022/05/27 06:56:21;;;;;;;0.40;0.30;;;;;;;;;;4178201;28;20437;-39
2022/05/27 06:58:22;;;;;;;0.20;0.20;;;;;;;;;;4177824;28;20049;-41
2022/05/27 07:00:23;;;;;;;0.75;0.20;;;;;;;;;;4175809;28;20082;-40
2022/05/27 07:02:24;;;;;;;1.40;0.30;;;;;;;;;;4176500;28;20522;-38
2022/05/27 07:04:26;;;;;;;0.32;0.30;;;;;;;;;;4178032;28;20099;-41
2022/05/27 07:06:29;;;;;;;0.47;0.20;;;;;;;;;;4178160;28;20119;-39
2022/05/27 07:08:30;;;;;;;0.50;0.20;;;;;;;;;;4177987;28;20053;-39
2022/05/27 07:10:31;;;;;;;0.20;0.20;;;;;;;;;;4178176;28;20106;-39
2022/05/27 07:12:32;;;;;;;0.28;0.20;;;;;;;;;;4176732;28;20048;-41
2022/05/27 07:14:33;;;;;;;0.40;0.20;;;;;;;;;;4177673;28;20401;-40
2022/05/27 07:16:34;;;;;;;0.20;0.20;;;;;;;;;;4178148;28;20063;-41
2022/05/27 07:18:35;;;;;;;0.68;0.20;;;;;;;;;;4177986;28;20094;-39
2022/05/27 07:20:36;;;;;;;0.45;0.20;;;;;;;;;;4177892;28;20556;-40
2022/05/27 07:22:37;;;;;;;0.30;0.10;;;;;;;;;;4178158;28;20128;-40
2022/05/27 07:24:38;;;;;;;0.10;0.10;;;;;;;;;;4177594;28;20131;-38
2022/05/27 07:26:40;;;;;;;0.38;0.20;;;;;;;;;;4178009;28;20061;-40
2022/05/27 07:28:41;;;;;;;0.20;0.10;;;;;;;;;;4177739;28;20072;-41
2022/05/27 07:30:42;;;;;;;0.65;0.40;;;;;;;;;;4178159;28;20049;-40
2022/05/27 07:32:44;;;;;;;0.10;0.10;;;;;;;;;;4192815;28;20078;-38
2022/05/27 07:34:46;;;;;;;0.70;0.20;;;;;;;;;;4177595;28;20049;-39
2022/05/27 07:36:47;;;;;;;0.20;0.20;;;;;;;;;;4177695;28;20052;-40
2022/05/27 07:38:51;;;;;;;1.30;0.20;;;;;;;;;;4177497;28;20053;-38
2022/05/27 07:40:52;;;;;;;0.20;0.20;;;;;;;;;;4177787;28;20061;-40
2022/05/27 07:42:53;;;;;;;0.28;0.20;;;;;;;;;;4177461;28;20110;-41
2022/05/27 07:44:54;;;;;;;0.40;0.20;;;;;;;;;;4177053;28;20095;-40
2022/05/27 07:46:55;;;;;;;0.28;0.10;;;;;;;;;;4177516;28;20076;-41
2022/05/27 07:48:56;;;;;;;0.22;0.20;;;;;;;;;;4177390;28;20431;-40
2022/05/27 07:50:57;;;;;;;0.47;0.13;;;;;;;;;;4177464;28;20075;-41
2022/05/27 07:52:58;;;;;;;0.20;0.20;;;;;;;;;;4177386;28;20139;-41
2022/05/27 07:54:59;;;;;;;0.30;0.20;;;;;;;;;;4177168;28;20260;-40
2022/05/27 07:57:00;;;;;;;0.35;0.20;;;;;;;;;;4177385;28;20049;-41
2022/05/27 07:59:02;;;;;;;0.65;0.20;;;;;;;;;;4176776;28;20514;-41
2022/05/27 08:01:04;;;;;;;0.57;0.20;;;;;;;;;;4177021;28;20550;-36
2022/05/27 08:03:05;;;;;;;0.30;0.20;;;;;;;;;;4177193;28;20060;-41
2022/05/27 08:05:08;;;;;;;0.30;0.20;;;;;;;;;;4177197;28;20385;-37
2022/05/27 08:07:08;;;;;;;0.30;0.30;;;;;;;;;;4176043;28;20416;-37
2022/05/27 08:09:10;;;;;;;0.88;0.10;;;;;;;;;;4177155;28;20095;-38
2022/05/27 08:11:11;;;;;;;0.20;0.20;;;;;;;;;;4177415;28;20095;-38
2022/05/27 08:13:13;;;;;;;0.20;0.10;;;;;;;;;;4177024;28;20109;-39
2022/05/27 08:15:14;;;;;;;0.50;0.20;;;;;;;;;;4177264;28;20095;-41
2022/05/27 08:17:16;;;;;;;0.65;0.15;;;;;;;;;;4177395;28;20053;-39
2022/05/27 08:19:16;;;;;;;0.25;0.20;;;;;;;;;;4175962;28;20052;-40
2022/05/27 08:21:17;;;;;;;0.30;0.10;;;;;;;;;;4177543;28;20091;-41
2022/05/27 08:23:19;;;;;;;0.20;0.20;;;;;;;;;;4178051;28;20057;-39
2022/05/27 08:25:20;;;;;;;0.98;0.30;;;;;;;;;;4180082;28;20484;-38
2022/05/27 08:27:22;;;;;;;0.82;0.20;;;;;;;;;;4180675;28;20503;-41
2022/05/27 08:29:23;;;;;;;0.40;0.20;;;;;;;;;;4180017;28;20057;-41
2022/05/27 08:31:24;;;;;;;2.17;0.20;;;;;;;;;;4180498;28;20086;-40
2022/05/27 08:33:25;;;;;;;0.20;0.20;;;;;;;;;;4180567;28;20060;-41
2022/05/27 08:38:01;;;;;;;0.50;0.10;;;;;;;;;;4180625;28;20049;-37
2022/05/27 08:40:08;;;;;;;0.88;0.10;;;;;;;;;;4180617;28;20400;-37
2022/05/27 08:42:30;;;;;;;0.38;0.20;;;;;;;;;;4180525;28;20061;-39
2022/05/27 08:44:45;;;;;;;0.10;0.10;;;;;;;;;;4180278;28;20456;-39
2022/05/27 08:46:52;;;;;;;0.20;0.20;;;;;;;;;;4180665;28;20061;-41
2022/05/27 08:48:55;;;;;;;0.25;0.15;;;;;;;;;;4179930;28;20447;-38
2022/05/27 08:50:57;;;;;;;0.85;0.10;;;;;;;;;;4180541;28;20443;-41
2022/05/27 08:53:17;;;;;;;0.95;0.20;;;;;;;;;;4180324;28;20053;-34
2022/05/27 09:00:04;;;;;;;0.30;0.20;;;;;;;;;;4179985;28;20053;-41
2022/05/27 09:02:14;;;;;;;0.10;0.10;;;;;;;;;;4193439;28;20447;-41
2022/05/27 09:04:17;;;;;;;0.40;0.20;;;;;;;;;;4190500;28;20045;-38
2022/05/27 09:06:25;;;;;;;0.68;0.20;;;;;;;;;;4182147;28;20052;-40
2022/05/27 09:08:26;;;;;;;0.32;0.10;;;;;;;;;;4182051;28;20050;-41
2022/05/27 09:10:34;;;;;;;0.40;0.30;;;;;;;;;;4181927;28;20466;-38
2022/05/27 09:12:42;;;;;;;0.30;0.15;;;;;;;;;;4182051;28;20443;-39
2022/05/27 09:14:50;;;;;;;0.32;0.20;;;;;;;;;;4181715;28;20049;-39
2022/05/27 09:16:58;;;;;;;0.20;0.20;;;;;;;;;;4181909;28;20060;-40
2022/05/27 09:19:05;;;;;;;0.20;0.20;;;;;;;;;;4181836;28;20091;-41
2022/05/27 09:21:16;;;;;;;0.32;0.13;;;;;;;;;;4181904;28;20404;-39
2022/05/27 09:23:28;;;;;;;0.65;0.30;;;;;;;;;;4181776;28;20485;-40
2022/05/27 09:25:38;;;;;;;0.30;0.30;;;;;;;;;;4181809;28;20052;-38
2022/05/27 09:27:39;;;;;;;;;;;;;;;;;;4182508;28;20045;-37
2022/05/27 09:29:50;;;;;;;0.20;0.20;;;;;;;;;;4181060;28;19924;-36
2022/05/27 09:32:05;;;;;;;0.10;0.10;;;;;;;;;;4182091;28;20056;-39
2022/05/27 09:34:08;;;;;;;0.55;0.30;;;;;;;;;;4181404;28;20045;-41
2022/05/27 09:36:12;;;;;;;0.10;0.10;;;;;;;;;;4180728;28;20528;-40
2022/05/27 09:38:20;;;;;;;1.02;0.20;;;;;;;;;;4181357;28;20094;-39
2022/05/27 09:40:33;;;;;;;0.50;0.20;;;;;;;;;;4181526;28;20053;-40
2022/05/27 09:42:38;;;;;;;0.38;0.20;;;;;;;;;;4181526;28;20053;-37
2022/05/27 09:44:48;;;;;;;0.52;0.20;;;;;;;;;;4180804;28;20485;-41
2022/05/27 09:46:49;;;;;;;0.90;0.22;;;;;;;;;;4181413;28;20037;-40
2022/05/27 09:48:50;;;;;;;0.95;0.10;;;;;;;;;;4181132;28;20129;-39
2022/05/27 09:50:51;;;;;;;0.20;0.17;;;;;;;;;;4181520;28;20123;-36
2022/05/27 09:52:56;;;;;;;0.10;0.10;;;;;;;;;;4181276;28;20049;-39
2022/05/27 09:54:59;;;;;;;0.30;0.20;;;;;;;;;;4196268;28;20459;-40
2022/05/27 09:57:02;;;;;;;0.10;0.10;;;;;;;;;;4196687;28;20102;-36
2022/05/27 09:59:20;;;;;;;0.35;0.25;;;;;;;;;;4180522;28;20568;-40
2022/05/27 10:01:23;;;;;;;0.28;0.20;;;;;;;;;;4181506;28;20052;-39
2022/05/27 10:03:32;;;;;;;0.25;0.25;;;;;;;;;;4180911;28;20100;-41
2022/05/27 10:05:33;;;;;;;0.22;0.22;;;;;;;;;;4180891;28;20053;-40
2022/05/27 10:07:44;;;;;;;0.10;0.10;;;;;;;;;;4180919;28;20091;-37
2022/05/27 10:09:44;;;;;;;0.25;0.20;;;;;;;;;;4181026;28;20396;-39
2022/05/27 10:11:48;;;;;;;0.20;0.10;;;;;;;;;;4181210;28;20075;-36
2022/05/27 10:14:10;;;;;;;0.15;0.10;;;;;;;;;;4180705;28;20049;-37
2022/05/27 10:16:15;;;;;;;0.10;0.10;;;;;;;;;;4181412;28;20053;-40
2022/05/27 10:18:15;;;;;;;1.75;0.20;;;;;;;;;;4180999;28;20059;-37
2022/05/27 10:20:31;;;;;;;0.98;0.20;;;;;;;;;;4179414;28;20471;-40
2022/05/27 10:22:32;;;;;;;0.20;0.20;;;;;;;;;;4181056;28;20061;-39
2022/05/27 10:24:33;;;;;;;0.20;0.20;;;;;;;;;;4180926;28;20199;-40
2022/05/27 10:26:34;;;;;;;0.47;0.20;;;;;;;;;;4180998;28;20045;-40
2022/05/27 10:28:35;;;;;;;0.30;0.10;;;;;;;;;;4180846;28;20053;-37
2022/05/27 10:30:52;;;;;;;0.50;0.17;;;;;;;;;;4180256;28;20354;-37
2022/05/27 10:32:53;;;;;;;0.38;0.20;;;;;;;;;;4181024;28;20048;-39
2022/05/27 10:34:54;;;;;;;0.20;0.20;;;;;;;;;;4180747;28;20049;-40
2022/05/27 10:37:00;;;;;;;0.40;0.10;;;;;;;;;;4180684;28;20099;-38
2022/05/27 10:39:03;;;;;;;0.10;0.10;;;;;;;;;;4180729;28;20053;-39
2022/05/27 10:41:14;;;;;;;0.30;0.10;;;;;;;;;;4180628;28;20245;-40
2022/05/27 10:43:29;;;;;;;0.30;0.10;;;;;;;;;;4180817;28;20041;-37
2022/05/27 10:45:31;;;;;;;0.30;0.17;;;;;;;;;;4180054;28;20056;-39
2022/05/27 10:47:35;;;;;;;0.38;0.10;;;;;;;;;;4180521;28;20049;-41
2022/05/27 10:49:44;;;;;;;0.10;0.10;;;;;;;;;;4180273;28;20045;-40
2022/05/27 10:52:04;;;;;;;0.47;0.17;;;;;;;;;;4180629;28;20103;-38
2022/05/27 10:54:20;;;;;;;0.10;0.10;;;;;;;;;;4180366;28;20067;-38
2022/05/27 10:56:24;;;;;;;0.25;0.20;;;;;;;;;;4180338;28;20079;-36
2022/05/27 11:03:36;;;;;;;0.20;0.03;;;;;;;;;;4180129;28;20126;-38
2022/05/27 11:05:55;;;;;;;0.30;0.10;;;;;;;;;;4179913;28;20049;-37
2022/05/27 11:08:17;;;;;;;0.27;0.13;;;;;;;;;;4180145;28;20051;-38
2022/05/27 11:10:24;;;;;;;0.17;0.10;;;;;;;;;;4179938;28;20098;-38
2022/05/27 11:15:10;;;;;;;1.27;0.20;;;;;;;;;;4180128;28;20049;-36
2022/05/27 11:15:10;;;;;;;2.72;0.17;;;;;;;;;;4179662;28;20053;-34
2022/05/27 11:17:11;;;;;;;0.20;0.20;;;;;;;;;;4178691;28;20439;-39
2022/05/27 11:19:15;;;;;;;0.10;0.10;;;;;;;;;;4179764;28;20468;-39
2022/05/27 11:21:34;;;;;;;0.15;0.10;;;;;;;;;;4178670;28;20094;-38
2022/05/27 11:23:50;;;;;;;0.10;0.10;;;;;;;;;;4178753;28;20052;-37
2022/05/27 11:25:51;;;;;;;0.25;0.10;;;;;;;;;;4179977;28;20437;-38
2022/05/27 11:28:01;;;;;;;0.17;0.10;;;;;;;;;;4179895;28;20114;-39
2022/05/27 11:30:08;;;;;;;0.25;0.13;;;;;;;;;;4179504;28;20049;-37
2022/05/27 11:32:12;;;;;;;0.52;0.22;;;;;;;;;;4179924;28;20095;-41
2022/05/27 11:34:19;;;;;;;0.10;0.10;;;;;;;;;;4179381;28;20484;-36
2022/05/27 11:36:30;;;;;;;0.10;0.10;;;;;;;;;;4179817;28;20052;-38
2022/05/27 11:38:49;;;;;;;0.10;0.10;;;;;;;;;;4179961;28;20045;-38
2022/05/27 11:40:53;;;;;;;0.10;0.10;;;;;;;;;;4179761;28;20554;-40
2022/05/27 11:42:55;;;;;;;0.10;0.10;;;;;;;;;;4179724;28;20083;-38
2022/05/27 11:45:16;;;;;;;0.20;0.20;;;;;;;;;;4179166;28;20052;-37
2022/05/27 11:47:31;;;;;;;0.10;0.10;;;;;;;;;;4204365;28;20458;-39
2022/05/27 11:49:50;;;;;;;0.00;0.00;;;;;;;;;;4179699;28;20114;-37
2022/05/27 11:52:00;;;;;;;0.10;0.10;;;;;;;;;;4178390;28;20117;-37
2022/05/27 11:54:08;;;;;;;0.20;0.10;;;;;;;;;;4179597;28;20053;-38
2022/05/27 11:56:24;;;;;;;0.10;0.10;;;;;;;;;;4179714;28;20045;-39
2022/05/27 11:58:44;;;;;;;1.42;0.10;;;;;;;;;;4179142;28;20508;-41
2022/05/27 12:00:48;;;;;;;0.10;0.10;;;;;;;;;;4179713;28;20114;-38
2022/05/27 12:03:01;;;;;;;0.10;0.03;;;;;;;;;;4179404;28;20059;-40
2022/05/27 12:05:07;;;;;;;0.30;0.20;;;;;;;;;;4179528;28;20098;-39
2022/05/27 12:07:08;;;;;;;1.05;0.10;;;;;;;;;;4179479;28;20554;-38
2022/05/27 12:09:15;;;;;;;0.35;0.10;;;;;;;;;;4179786;28;20089;-40
2022/05/27 12:11:19;;;;;;;0.10;0.10;;;;;;;;;;4179857;28;20040;-39
2022/05/27 12:13:20;;;;;;;0.52;0.08;;;;;;;;;;4179538;28;20053;-39
2022/05/27 12:15:29;;;;;;;0.38;0.13;;;;;;;;;;4178827;28;20542;-39
2022/05/27 12:17:36;;;;;;;1.30;0.10;;;;;;;;;;4179612;28;20052;-40
2022/05/27 12:19:39;;;;;;;0.10;0.10;;;;;;;;;;4179240;28;20451;-37
2022/05/27 12:21:42;;;;;;;1.60;0.10;;;;;;;;;;4179202;28;20443;-39
2022/05/27 12:23:47;;;;;;;0.05;0.05;;;;;;;;;;4179190;28;20103;-40
2022/05/27 12:25:50;;;;;;;1.27;0.20;;;;;;;;;;4179367;28;20045;-39
2022/05/27 12:27:52;;;;;;;0.10;0.00;;;;;;;;;;4178021;28;20052;-38
2022/05/27 12:29:54;;;;;;;0.00;0.00;;;;;;;;;;4178761;28;20107;-41
2022/05/27 12:31:56;;;;;;;0.10;0.10;;;;;;;;;;4179238;28;20049;-40
2022/05/27 12:33:57;;;;;;;0.10;0.10;;;;;;;;;;4179130;28;20045;-36
2022/05/27 12:36:12;;;;;;;0.13;0.13;;;;;;;;;;4194429;28;20439;-39
2022/05/27 12:38:23;;;;;;;0.10;0.10;;;;;;;;;;4179261;28;20052;-39
2022/05/27 12:40:24;;;;;;;;;;;;;;;;;;4179674;28;20056;-40
2022/05/27 12:42:25;;;;;;;0.50;0.08;;;;;;;;;;4179541;28;19962;-37
2022/05/27 12:44:28;;;;;;;0.10;0.10;;;;;;;;;;4178602;28;20056;-36
2022/05/27 12:46:32;;;;;;;0.03;0.03;;;;;;;;;;4178916;28;20095;-40
2022/05/27 12:48:34;;;;;;;0.10;0.10;;;;;;;;;;4179093;28;20049;-39
2022/05/27 12:50:37;;;;;;;0.22;0.10;;;;;;;;;;4178946;28;20049;-39
2022/05/27 12:52:43;;;;;;;0.08;0.08;;;;;;;;;;4178983;28;20075;-38